• Join FlightAware (Why Join?)
  • Login
  • US Flag 
01:42PM EDT


 

Airport Tracker/Info


-or-


 

Live Flight TrackerFlight Track Log ✈ CHQ5045 ✈ 17-Jun-2013 ✈ KLSE - KORD

Flight Track Log - Related Links

Times and Time Zones

All times are in EDT time to prevent confusion due to time zone crossing. See the CHQ5045 flight status page for this flight to view local times or setup timezone preferences in your user account.

Time Position Orientation Groundspeed Altitude Reporting Facility
EDT Latitude Longitude Course Direction KTS MPH feet Rate Location/Type
02:44PM 43.9317 -91.2447 111° Southeast 194 223 3,200  Level Minneapolis Center
02:45PM 43.7792 -91.0701 112° Southeast  Level Estimated
02:45PM 43.9183 -91.1492 101° East 259 298 5,600  Level Minneapolis Center
02:46PM 43.7907 -90.9943 78° East  Level FlightAware Approximate
02:46PM 43.8742 -91.0517 122° Southeast 285 328 8,300  Level Minneapolis Center
02:47PM 43.7357 -90.8955 109° East  Level Estimated
02:47PM 43.8322 -90.9503 120° Southeast 311 358 10,300  Level Minneapolis Center
02:48PM 43.6806 -90.7968 90° East  Level Estimated
02:48PM 43.7814 -90.8297 120° Southeast 345 397 12,500  Level Minneapolis Center
02:49PM 43.6254 -90.6982 111° Southeast  Level Estimated
02:49PM 43.7250 -90.6936 120° Southeast 395 455 13,600  Level Minneapolis Center
02:49PM 43.6867 -90.6047 121° Southeast 399 459 14,900 1,380 Climbing Chicago Center
02:50PM 43.6172 -90.4817 128° Southeast 410 472 16,100 1,020 Climbing Chicago Center
02:52PM 43.5397 -90.3592 131° Southeast 421 484 17,100 1,020 Climbing Chicago Center
02:53PM 43.4417 -90.2025 131° Southeast 437 503 18,300 900 Climbing Chicago Center
02:54PM 43.3597 -90.0744 131° Southeast 446 513 19,000 300 Climbing Chicago Center
02:55PM 43.2769 -89.9436 131° Southeast 452 520 19,000 -120 Level Chicago Center
02:57PM 43.1092 -89.6808 131° Southeast 463 533 18,700 -660 Descending Chicago Center
02:58PM 43.0114 -89.5294 131° Southeast 455 524 17,000 -1,680 Descending Chicago Center
02:59PM 42.9306 -89.4053 132° Southeast 441 507 15,300 -1,620 Descending Chicago Center
03:00PM 42.8519 -89.2836 131° Southeast 431 496 13,700 -1,140 Descending Chicago Center
03:01PM 42.7656 -89.1908 142° Southeast 404 465 13,000 -540 Descending Chicago Center
03:02PM 42.6650 -89.1472 162° South 385 443 12,700 -720 Descending Chicago Center
03:03PM 42.5844 -89.0228 131° Southeast 391 450 11,600 -840 Descending Chicago Center
03:04PM 42.5342 -88.8936 118° Southeast 387 445 11,000 -540 Descending Chicago Center
03:05PM 42.4828 -88.7664 119° Southeast 386 444 10,600 -480 Descending Chicago Center
03:06PM 42.4311 -88.6400 119° Southeast 386 444 10,000 -300 Descending Chicago Center
03:07PM 42.3803 -88.5136 119° Southeast 383 441 10,000  Level Chicago Center
03:08PM 42.3092 -88.4000 130° Southeast 371 427 10,000 -60 Level Chicago Center
03:09PM 42.2417 -88.2939 131° Southeast 373 429 9,900 -240 Descending Chicago Center
03:10PM 42.1836 -88.2047 131° Southeast 327 376 9,600 -840 Descending Chicago Center
03:11PM 42.1200 -88.1061 131° Southeast 294 338 8,200 -1,260 Descending Chicago Center
03:12PM 42.0764 -88.0511 137° Southeast 225 259 7,100 -540 Descending Chicago Center
03:13PM 42.0167 -88.0000 148° Southeast 193 222 7,100 -60 Level Chicago TRACON
03:14PM 41.9667 -87.9500 143° Southeast 225 259 7,000 -60 Descending Chicago TRACON
03:15PM 41.9333 -87.9167 143° Southeast 204 235 7,000  Level Chicago TRACON
03:16PM 41.9167 -87.8333 105° East 217 250 7,000 -840 Level Chicago TRACON
03:17PM 41.9000 -87.7667 109° East 226 260 5,400 -1,320 Descending Chicago TRACON
03:18PM 41.8972 -87.6739 92° East 217 250 4,100 -660 Descending Chicago Center
03:19PM 41.9444 -87.6572 15° North 199 229 4,000 -420 Descending Chicago Center
03:20PM 41.9689 -87.7183 298° West 195 224 3,300 -960 Descending Chicago Center
03:22PM 41.9694 -87.7956 271° West 185 213 2,100 -1,200 Descending Chicago Center